sensor_id;sensor_type;location;lat;lon;timestamp;P1;durP1;ratioP1;P2;durP2;ratioP2
826;SDS011;395;48.132;11.608;2023-04-03T00:01:06;9.60;;;6.43;;
826;SDS011;395;48.132;11.608;2023-04-03T00:03:32;8.20;;;7.10;;
826;SDS011;395;48.132;11.608;2023-04-03T00:05:58;7.60;;;6.90;;
826;SDS011;395;48.132;11.608;2023-04-03T00:08:24;6.93;;;6.23;;
826;SDS011;395;48.132;11.608;2023-04-03T00:10:50;8.03;;;6.40;;
826;SDS011;395;48.132;11.608;2023-04-03T00:13:15;7.00;;;6.20;;
826;SDS011;395;48.132;11.608;2023-04-03T00:15:41;7.90;;;7.10;;
826;SDS011;395;48.132;11.608;2023-04-03T00:18:07;8.77;;;6.33;;
826;SDS011;395;48.132;11.608;2023-04-03T00:20:33;7.35;;;6.65;;
826;SDS011;395;48.132;11.608;2023-04-03T00:22:59;7.77;;;6.50;;
826;SDS011;395;48.132;11.608;2023-04-03T00:25:26;8.57;;;6.80;;
826;SDS011;395;48.132;11.608;2023-04-03T00:27:52;7.43;;;6.60;;
826;SDS011;395;48.132;11.608;2023-04-03T00:30:18;7.17;;;6.47;;
826;SDS011;395;48.132;11.608;2023-04-03T00:32:47;10.00;;;7.65;;
826;SDS011;395;48.132;11.608;2023-04-03T00:35:14;9.55;;;7.05;;
826;SDS011;395;48.132;11.608;2023-04-03T00:37:41;8.85;;;6.20;;
826;SDS011;395;48.132;11.608;2023-04-03T00:40:07;8.63;;;7.07;;
826;SDS011;395;48.132;11.608;2023-04-03T00:42:35;8.20;;;6.60;;
826;SDS011;395;48.132;11.608;2023-04-03T00:47:28;6.70;;;6.00;;
826;SDS011;395;48.132;11.608;2023-04-03T00:49:55;7.57;;;6.40;;
826;SDS011;395;48.132;11.608;2023-04-03T00:52:23;7.70;;;6.90;;
826;SDS011;395;48.132;11.608;2023-04-03T00:54:53;8.30;;;7.00;;
826;SDS011;395;48.132;11.608;2023-04-03T00:57:26;6.28;;;5.68;;
826;SDS011;395;48.132;11.608;2023-04-03T00:59:56;6.70;;;6.05;;
826;SDS011;395;48.132;11.608;2023-04-03T01:02:24;8.18;;;6.65;;
826;SDS011;395;48.132;11.608;2023-04-03T01:04:51;9.60;;;6.35;;
826;SDS011;395;48.132;11.608;2023-04-03T01:07:17;8.17;;;6.50;;
826;SDS011;395;48.132;11.608;2023-04-03T01:09:48;5.97;;;5.43;;
826;SDS011;395;48.132;11.608;2023-04-03T01:12:18;8.18;;;6.10;;
826;SDS011;395;48.132;11.608;2023-04-03T01:14:46;6.50;;;5.90;;
826;SDS011;395;48.132;11.608;2023-04-03T01:17:29;7.18;;;6.35;;
826;SDS011;395;48.132;11.608;2023-04-03T01:20:14;9.77;;;6.35;;
826;SDS011;395;48.132;11.608;2023-04-03T01:22:58;7.40;;;6.70;;
826;SDS011;395;48.132;11.608;2023-04-03T01:25:33;8.35;;;7.15;;
826;SDS011;395;48.132;11.608;2023-04-03T01:28:01;7.68;;;6.75;;
826;SDS011;395;48.132;11.608;2023-04-03T01:30:31;6.60;;;5.53;;
826;SDS011;395;48.132;11.608;2023-04-03T01:32:59;7.55;;;6.78;;
826;SDS011;395;48.132;11.608;2023-04-03T01:35:25;9.97;;;6.50;;
826;SDS011;395;48.132;11.608;2023-04-03T01:37:50;7.80;;;6.40;;
826;SDS011;395;48.132;11.608;2023-04-03T01:40:16;7.00;;;5.90;;
826;SDS011;395;48.132;11.608;2023-04-03T01:42:42;7.18;;;5.93;;
826;SDS011;395;48.132;11.608;2023-04-03T01:45:08;7.20;;;6.00;;
826;SDS011;395;48.132;11.608;2023-04-03T01:47:34;6.57;;;5.88;;
826;SDS011;395;48.132;11.608;2023-04-03T01:50:00;6.40;;;5.70;;
826;SDS011;395;48.132;11.608;2023-04-03T01:52:25;6.63;;;5.87;;
826;SDS011;395;48.132;11.608;2023-04-03T01:54:51;6.20;;;5.60;;
826;SDS011;395;48.132;11.608;2023-04-03T01:57:17;6.60;;;5.87;;
826;SDS011;395;48.132;11.608;2023-04-03T01:59:43;8.07;;;7.00;;
826;SDS011;395;48.132;11.608;2023-04-03T02:02:08;7.37;;;5.80;;
826;SDS011;395;48.132;11.608;2023-04-03T02:04:34;9.40;;;6.00;;
826;SDS011;395;48.132;11.608;2023-04-03T02:07:00;8.87;;;6.77;;
826;SDS011;395;48.132;11.608;2023-04-03T02:09:25;6.80;;;6.10;;
826;SDS011;395;48.132;11.608;2023-04-03T02:11:52;6.93;;;6.23;;
826;SDS011;395;48.132;11.608;2023-04-03T02:14:18;6.55;;;5.22;;
826;SDS011;395;48.132;11.608;2023-04-03T02:16:43;6.13;;;5.50;;
826;SDS011;395;48.132;11.608;2023-04-03T02:19:09;7.43;;;6.30;;
826;SDS011;395;48.132;11.608;2023-04-03T02:21:35;5.93;;;5.33;;
826;SDS011;395;48.132;11.608;2023-04-03T02:24:00;7.00;;;6.13;;
826;SDS011;395;48.132;11.608;2023-04-03T02:26:26;6.30;;;5.57;;
826;SDS011;395;48.132;11.608;2023-04-03T02:28:52;6.33;;;5.73;;
826;SDS011;395;48.132;11.608;2023-04-03T02:31:17;6.73;;;6.03;;
826;SDS011;395;48.132;11.608;2023-04-03T02:33:43;7.30;;;5.60;;
826;SDS011;395;48.132;11.608;2023-04-03T02:36:09;8.20;;;6.50;;
826;SDS011;395;48.132;11.608;2023-04-03T02:38:35;6.10;;;5.35;;
826;SDS011;395;48.132;11.608;2023-04-03T02:41:02;6.37;;;5.33;;
826;SDS011;395;48.132;11.608;2023-04-03T02:43:29;6.45;;;5.85;;
826;SDS011;395;48.132;11.608;2023-04-03T02:45:55;5.97;;;5.33;;
826;SDS011;395;48.132;11.608;2023-04-03T02:48:20;5.50;;;4.87;;
826;SDS011;395;48.132;11.608;2023-04-03T02:50:46;5.80;;;5.18;;
826;SDS011;395;48.132;11.608;2023-04-03T02:53:12;5.73;;;5.13;;
826;SDS011;395;48.132;11.608;2023-04-03T02:55:38;6.00;;;4.80;;
826;SDS011;395;48.132;11.608;2023-04-03T02:58:03;6.37;;;5.30;;
826;SDS011;395;48.132;11.608;2023-04-03T03:00:29;5.27;;;4.87;;
826;SDS011;395;48.132;11.608;2023-04-03T03:02:55;5.10;;;4.63;;
826;SDS011;395;48.132;11.608;2023-04-03T03:05:20;5.10;;;4.60;;
826;SDS011;395;48.132;11.608;2023-04-03T03:07:46;4.20;;;3.80;;
826;SDS011;395;48.132;11.608;2023-04-03T03:10:12;5.87;;;5.27;;
826;SDS011;395;48.132;11.608;2023-04-03T03:12:38;5.43;;;4.40;;
826;SDS011;395;48.132;11.608;2023-04-03T03:15:05;5.90;;;5.13;;
826;SDS011;395;48.132;11.608;2023-04-03T03:17:32;5.65;;;5.15;;
826;SDS011;395;48.132;11.608;2023-04-03T03:19:57;5.17;;;4.50;;
826;SDS011;395;48.132;11.608;2023-04-03T03:22:23;5.00;;;4.50;;
826;SDS011;395;48.132;11.608;2023-04-03T03:24:49;4.73;;;4.10;;
826;SDS011;395;48.132;11.608;2023-04-03T03:27:15;5.97;;;4.10;;
826;SDS011;395;48.132;11.608;2023-04-03T03:29:41;4.40;;;3.97;;
826;SDS011;395;48.132;11.608;2023-04-03T03:32:07;5.82;;;4.05;;
826;SDS011;395;48.132;11.608;2023-04-03T03:34:33;3.97;;;3.67;;
826;SDS011;395;48.132;11.608;2023-04-03T03:36:58;5.67;;;4.27;;
826;SDS011;395;48.132;11.608;2023-04-03T03:39:24;5.73;;;4.53;;
826;SDS011;395;48.132;11.608;2023-04-03T03:41:50;4.17;;;3.87;;
826;SDS011;395;48.132;11.608;2023-04-03T03:44:18;4.75;;;3.85;;
826;SDS011;395;48.132;11.608;2023-04-03T03:46:44;4.32;;;3.92;;
826;SDS011;395;48.132;11.608;2023-04-03T03:49:10;4.93;;;4.37;;
826;SDS011;395;48.132;11.608;2023-04-03T03:51:36;4.38;;;3.95;;
826;SDS011;395;48.132;11.608;2023-04-03T03:54:03;4.55;;;4.05;;
826;SDS011;395;48.132;11.608;2023-04-03T03:56:29;5.80;;;3.92;;
826;SDS011;395;48.132;11.608;2023-04-03T03:58:54;4.80;;;4.30;;
826;SDS011;395;48.132;11.608;2023-04-03T04:01:21;4.45;;;4.05;;
826;SDS011;395;48.132;11.608;2023-04-03T04:03:50;4.65;;;4.13;;
826;SDS011;395;48.132;11.608;2023-04-03T04:06:16;3.67;;;3.37;;
826;SDS011;395;48.132;11.608;2023-04-03T04:08:42;5.50;;;4.05;;
826;SDS011;395;48.132;11.608;2023-04-03T04:11:08;5.90;;;4.43;;
826;SDS011;395;48.132;11.608;2023-04-03T04:13:33;4.55;;;3.88;;
826;SDS011;395;48.132;11.608;2023-04-03T04:15:59;4.43;;;3.73;;
826;SDS011;395;48.132;11.608;2023-04-03T04:18:25;3.77;;;3.30;;
826;SDS011;395;48.132;11.608;2023-04-03T04:20:50;4.10;;;3.70;;
826;SDS011;395;48.132;11.608;2023-04-03T04:23:16;5.37;;;3.23;;
826;SDS011;395;48.132;11.608;2023-04-03T04:25:46;4.97;;;4.28;;
826;SDS011;395;48.132;11.608;2023-04-03T04:28:14;4.20;;;3.60;;
826;SDS011;395;48.132;11.608;2023-04-03T04:30:40;5.97;;;3.65;;
826;SDS011;395;48.132;11.608;2023-04-03T04:33:06;4.87;;;3.80;;
826;SDS011;395;48.132;11.608;2023-04-03T04:35:32;5.03;;;3.70;;
826;SDS011;395;48.132;11.608;2023-04-03T04:37:58;4.00;;;3.70;;
826;SDS011;395;48.132;11.608;2023-04-03T04:40:24;5.50;;;3.85;;
826;SDS011;395;48.132;11.608;2023-04-03T04:42:51;5.20;;;3.80;;
826;SDS011;395;48.132;11.608;2023-04-03T04:45:17;4.27;;;3.87;;
826;SDS011;395;48.132;11.608;2023-04-03T04:47:43;4.18;;;3.78;;
826;SDS011;395;48.132;11.608;2023-04-03T04:50:09;5.10;;;4.10;;
826;SDS011;395;48.132;11.608;2023-04-03T04:52:35;4.40;;;4.00;;
826;SDS011;395;48.132;11.608;2023-04-03T04:55:01;7.37;;;4.07;;
826;SDS011;395;48.132;11.608;2023-04-03T04:57:27;5.50;;;4.23;;
826;SDS011;395;48.132;11.608;2023-04-03T04:59:52;5.23;;;3.73;;
826;SDS011;395;48.132;11.608;2023-04-03T05:02:18;4.53;;;3.60;;
826;SDS011;395;48.132;11.608;2023-04-03T05:04:44;3.90;;;3.57;;
826;SDS011;395;48.132;11.608;2023-04-03T05:07:09;4.60;;;3.90;;
826;SDS011;395;48.132;11.608;2023-04-03T05:09:35;4.57;;;4.17;;
826;SDS011;395;48.132;11.608;2023-04-03T05:12:01;4.50;;;3.90;;
826;SDS011;395;48.132;11.608;2023-04-03T05:14:28;5.57;;;4.25;;
826;SDS011;395;48.132;11.608;2023-04-03T05:16:54;3.85;;;3.55;;
826;SDS011;395;48.132;11.608;2023-04-03T05:19:21;3.90;;;3.50;;
826;SDS011;395;48.132;11.608;2023-04-03T05:21:47;4.60;;;4.20;;
826;SDS011;395;48.132;11.608;2023-04-03T05:24:13;4.10;;;3.70;;
826;SDS011;395;48.132;11.608;2023-04-03T05:26:39;4.10;;;3.65;;
826;SDS011;395;48.132;11.608;2023-04-03T05:29:05;5.13;;;4.03;;
826;SDS011;395;48.132;11.608;2023-04-03T05:31:31;4.57;;;3.70;;
826;SDS011;395;48.132;11.608;2023-04-03T05:33:57;4.27;;;3.87;;
826;SDS011;395;48.132;11.608;2023-04-03T05:36:23;4.13;;;3.80;;
826;SDS011;395;48.132;11.608;2023-04-03T05:38:49;6.00;;;4.20;;
826;SDS011;395;48.132;11.608;2023-04-03T05:41:15;4.63;;;4.17;;
826;SDS011;395;48.132;11.608;2023-04-03T05:43:41;4.93;;;3.95;;
826;SDS011;395;48.132;11.608;2023-04-03T05:46:09;4.00;;;3.60;;
826;SDS011;395;48.132;11.608;2023-04-03T05:48:39;3.85;;;3.45;;
826;SDS011;395;48.132;11.608;2023-04-03T05:51:05;4.17;;;3.77;;
826;SDS011;395;48.132;11.608;2023-04-03T05:53:32;5.13;;;4.45;;
826;SDS011;395;48.132;11.608;2023-04-03T05:56:02;3.63;;;3.30;;
826;SDS011;395;48.132;11.608;2023-04-03T05:58:28;5.25;;;4.47;;
826;SDS011;395;48.132;11.608;2023-04-03T06:00:53;7.37;;;4.63;;
826;SDS011;395;48.132;11.608;2023-04-03T06:03:20;4.40;;;4.00;;
826;SDS011;395;48.132;11.608;2023-04-03T06:05:45;4.67;;;4.20;;
826;SDS011;395;48.132;11.608;2023-04-03T06:08:11;6.43;;;4.07;;
826;SDS011;395;48.132;11.608;2023-04-03T06:10:37;4.93;;;3.85;;
826;SDS011;395;48.132;11.608;2023-04-03T06:13:03;5.00;;;4.50;;
826;SDS011;395;48.132;11.608;2023-04-03T06:15:29;4.37;;;3.97;;
826;SDS011;395;48.132;11.608;2023-04-03T06:17:55;5.73;;;4.10;;
826;SDS011;395;48.132;11.608;2023-04-03T06:20:21;4.77;;;4.27;;
826;SDS011;395;48.132;11.608;2023-04-03T06:22:47;4.38;;;3.83;;
826;SDS011;395;48.132;11.608;2023-04-03T06:25:13;4.40;;;4.00;;
826;SDS011;395;48.132;11.608;2023-04-03T06:27:39;4.95;;;4.35;;
826;SDS011;395;48.132;11.608;2023-04-03T06:30:05;5.87;;;3.90;;
826;SDS011;395;48.132;11.608;2023-04-03T06:32:32;5.53;;;4.28;;
826;SDS011;395;48.132;11.608;2023-04-03T06:34:57;5.77;;;4.40;;
826;SDS011;395;48.132;11.608;2023-04-03T06:37:23;6.10;;;4.60;;
826;SDS011;395;48.132;11.608;2023-04-03T06:39:51;5.00;;;4.50;;
826;SDS011;395;48.132;11.608;2023-04-03T06:42:17;4.68;;;4.28;;
826;SDS011;395;48.132;11.608;2023-04-03T06:44:43;5.50;;;4.47;;
826;SDS011;395;48.132;11.608;2023-04-03T06:47:12;4.70;;;4.07;;
826;SDS011;395;48.132;11.608;2023-04-03T06:49:39;6.10;;;4.50;;
826;SDS011;395;48.132;11.608;2023-04-03T06:52:05;5.40;;;4.60;;
826;SDS011;395;48.132;11.608;2023-04-03T06:54:31;5.77;;;4.50;;
826;SDS011;395;48.132;11.608;2023-04-03T06:56:57;5.20;;;4.25;;
826;SDS011;395;48.132;11.608;2023-04-03T06:59:24;5.13;;;4.20;;
826;SDS011;395;48.132;11.608;2023-04-03T07:01:50;4.45;;;4.00;;
826;SDS011;395;48.132;11.608;2023-04-03T07:04:16;4.80;;;4.30;;
826;SDS011;395;48.132;11.608;2023-04-03T07:06:43;5.38;;;4.15;;
826;SDS011;395;48.132;11.608;2023-04-03T07:09:09;6.10;;;4.27;;
826;SDS011;395;48.132;11.608;2023-04-03T07:11:35;5.85;;;4.50;;
826;SDS011;395;48.132;11.608;2023-04-03T07:14:01;5.30;;;4.40;;
826;SDS011;395;48.132;11.608;2023-04-03T07:16:27;6.80;;;4.75;;
826;SDS011;395;48.132;11.608;2023-04-03T07:18:55;6.13;;;4.10;;
826;SDS011;395;48.132;11.608;2023-04-03T07:21:21;4.87;;;4.43;;
826;SDS011;395;48.132;11.608;2023-04-03T07:23:47;5.80;;;4.07;;
826;SDS011;395;48.132;11.608;2023-04-03T07:26:12;7.33;;;4.50;;
826;SDS011;395;48.132;11.608;2023-04-03T07:28:38;8.18;;;4.60;;
826;SDS011;395;48.132;11.608;2023-04-03T07:31:06;7.20;;;4.82;;
826;SDS011;395;48.132;11.608;2023-04-03T07:33:35;5.25;;;4.75;;
826;SDS011;395;48.132;11.608;2023-04-03T07:36:03;8.52;;;4.93;;
826;SDS011;395;48.132;11.608;2023-04-03T07:38:31;5.05;;;4.55;;
826;SDS011;395;48.132;11.608;2023-04-03T07:40:57;5.60;;;4.63;;
826;SDS011;395;48.132;11.608;2023-04-03T07:43:23;6.40;;;5.40;;
826;SDS011;395;48.132;11.608;2023-04-03T07:45:50;6.35;;;5.70;;
826;SDS011;395;48.132;11.608;2023-04-03T07:48:17;7.30;;;6.03;;
826;SDS011;395;48.132;11.608;2023-04-03T07:50:43;6.97;;;5.55;;
826;SDS011;395;48.132;11.608;2023-04-03T07:53:09;6.27;;;5.20;;
826;SDS011;395;48.132;11.608;2023-04-03T07:55:35;6.20;;;5.57;;
826;SDS011;395;48.132;11.608;2023-04-03T07:58:07;10.57;;;6.05;;
826;SDS011;395;48.132;11.608;2023-04-03T08:00:37;9.27;;;6.10;;
826;SDS011;395;48.132;11.608;2023-04-03T08:03:03;10.50;;;6.32;;
826;SDS011;395;48.132;11.608;2023-04-03T08:05:29;7.75;;;6.82;;
826;SDS011;395;48.132;11.608;2023-04-03T08:07:56;7.20;;;6.50;;
826;SDS011;395;48.132;11.608;2023-04-03T08:10:22;8.55;;;6.40;;
826;SDS011;395;48.132;11.608;2023-04-03T08:12:47;9.80;;;6.13;;
826;SDS011;395;48.132;11.608;2023-04-03T08:15:13;7.07;;;6.37;;
826;SDS011;395;48.132;11.608;2023-04-03T08:17:39;7.10;;;5.90;;
826;SDS011;395;48.132;11.608;2023-04-03T08:20:05;8.23;;;6.40;;
826;SDS011;395;48.132;11.608;2023-04-03T08:22:32;9.77;;;6.80;;
826;SDS011;395;48.132;11.608;2023-04-03T08:24:58;13.97;;;6.63;;
826;SDS011;395;48.132;11.608;2023-04-03T08:27:26;9.60;;;6.07;;
826;SDS011;395;48.132;11.608;2023-04-03T08:29:52;10.18;;;6.40;;
826;SDS011;395;48.132;11.608;2023-04-03T08:32:17;16.10;;;6.30;;
826;SDS011;395;48.132;11.608;2023-04-03T08:34:44;10.35;;;6.07;;
826;SDS011;395;48.132;11.608;2023-04-03T08:37:09;11.93;;;6.77;;
826;SDS011;395;48.132;11.608;2023-04-03T08:39:35;8.87;;;7.13;;
826;SDS011;395;48.132;11.608;2023-04-03T08:42:02;9.07;;;5.80;;
826;SDS011;395;48.132;11.608;2023-04-03T08:44:46;8.50;;;6.20;;
826;SDS011;395;48.132;11.608;2023-04-03T08:47:52;7.10;;;5.87;;
826;SDS011;395;48.132;11.608;2023-04-03T08:50:19;8.97;;;5.90;;
826;SDS011;395;48.132;11.608;2023-04-03T08:52:48;7.10;;;6.40;;
826;SDS011;395;48.132;11.608;2023-04-03T08:57:53;8.17;;;6.50;;
826;SDS011;395;48.132;11.608;2023-04-03T09:00:28;8.73;;;5.83;;
826;SDS011;395;48.132;11.608;2023-04-03T09:03:02;8.63;;;6.40;;
826;SDS011;395;48.132;11.608;2023-04-03T09:10:29;7.80;;;6.70;;
826;SDS011;395;48.132;11.608;2023-04-03T09:12:59;6.63;;;6.00;;
826;SDS011;395;48.132;11.608;2023-04-03T09:15:30;8.37;;;6.53;;
826;SDS011;395;48.132;11.608;2023-04-03T09:23:17;8.90;;;6.35;;
826;SDS011;395;48.132;11.608;2023-04-03T09:26:14;10.30;;;7.03;;
826;SDS011;395;48.132;11.608;2023-04-03T09:29:07;7.00;;;6.17;;
826;SDS011;395;48.132;11.608;2023-04-03T09:31:37;14.40;;;6.90;;
826;SDS011;395;48.132;11.608;2023-04-03T09:36:53;9.90;;;5.60;;
826;SDS011;395;48.132;11.608;2023-04-03T09:39:21;8.70;;;7.68;;
826;SDS011;395;48.132;11.608;2023-04-03T09:44:30;7.18;;;6.40;;
826;SDS011;395;48.132;11.608;2023-04-03T09:46:58;10.23;;;6.10;;
826;SDS011;395;48.132;11.608;2023-04-03T09:49:25;7.53;;;5.17;;
826;SDS011;395;48.132;11.608;2023-04-03T09:51:51;5.80;;;5.18;;
826;SDS011;395;48.132;11.608;2023-04-03T09:54:37;13.83;;;5.90;;
826;SDS011;395;48.132;11.608;2023-04-03T09:57:09;7.90;;;5.27;;
826;SDS011;395;48.132;11.608;2023-04-03T09:59:42;5.97;;;5.20;;
826;SDS011;395;48.132;11.608;2023-04-03T10:04:56;6.38;;;4.80;;
826;SDS011;395;48.132;11.608;2023-04-03T10:07:30;7.23;;;5.47;;
826;SDS011;395;48.132;11.608;2023-04-03T10:10:17;5.43;;;4.93;;
826;SDS011;395;48.132;11.608;2023-04-03T10:12:44;5.30;;;4.80;;
826;SDS011;395;48.132;11.608;2023-04-03T10:15:14;5.40;;;4.90;;
826;SDS011;395;48.132;11.608;2023-04-03T10:20:45;6.30;;;5.20;;
826;SDS011;395;48.132;11.608;2023-04-03T10:23:22;5.20;;;4.80;;
826;SDS011;395;48.132;11.608;2023-04-03T10:31:24;6.37;;;5.63;;
826;SDS011;395;48.132;11.608;2023-04-03T10:37:25;5.93;;;5.43;;
826;SDS011;395;48.132;11.608;2023-04-03T10:39:45;6.33;;;4.80;;
826;SDS011;395;48.132;11.608;2023-04-03T10:56:03;6.83;;;5.03;;
826;SDS011;395;48.132;11.608;2023-04-03T10:58:52;5.32;;;4.82;;
826;SDS011;395;48.132;11.608;2023-04-03T11:01:24;5.22;;;4.72;;
826;SDS011;395;48.132;11.608;2023-04-03T11:03:58;6.75;;;5.30;;
826;SDS011;395;48.132;11.608;2023-04-03T11:06:28;4.87;;;4.37;;
826;SDS011;395;48.132;11.608;2023-04-03T11:09:30;4.78;;;4.30;;
826;SDS011;395;48.132;11.608;2023-04-03T11:12:12;6.07;;;4.50;;
826;SDS011;395;48.132;11.608;2023-04-03T11:14:46;5.93;;;4.97;;
826;SDS011;395;48.132;11.608;2023-04-03T11:27:38;5.85;;;4.00;;
826;SDS011;395;48.132;11.608;2023-04-03T11:30:16;4.67;;;4.20;;
826;SDS011;395;48.132;11.608;2023-04-03T11:33:35;4.43;;;4.03;;
826;SDS011;395;48.132;11.608;2023-04-03T11:35:32;5.63;;;4.25;;
826;SDS011;395;48.132;11.608;2023-04-03T11:37:59;6.40;;;3.80;;
826;SDS011;395;48.132;11.608;2023-04-03T11:40:29;4.03;;;3.60;;
826;SDS011;395;48.132;11.608;2023-04-03T11:45:27;3.80;;;3.40;;
826;SDS011;395;48.132;11.608;2023-04-03T11:48:03;3.70;;;3.40;;
826;SDS011;395;48.132;11.608;2023-04-03T11:53:02;6.07;;;3.57;;
826;SDS011;395;48.132;11.608;2023-04-03T12:05:57;3.80;;;3.20;;
826;SDS011;395;48.132;11.608;2023-04-03T12:31:58;5.93;;;2.83;;
826;SDS011;395;48.132;11.608;2023-04-03T12:34:49;2.97;;;2.50;;
826;SDS011;395;48.132;11.608;2023-04-03T12:42:21;10.60;;;2.97;;
826;SDS011;395;48.132;11.608;2023-04-03T12:47:25;2.47;;;2.27;;
826;SDS011;395;48.132;11.608;2023-04-03T12:50:29;2.63;;;2.17;;
826;SDS011;395;48.132;11.608;2023-04-03T12:53:10;3.27;;;2.60;;
826;SDS011;395;48.132;11.608;2023-04-03T12:55:37;5.27;;;2.97;;
826;SDS011;395;48.132;11.608;2023-04-03T13:01:04;8.10;;;3.57;;
826;SDS011;395;48.132;11.608;2023-04-03T13:03:37;6.30;;;2.67;;
826;SDS011;395;48.132;11.608;2023-04-03T13:06:04;5.40;;;2.90;;
826;SDS011;395;48.132;11.608;2023-04-03T13:08:30;6.53;;;2.90;;
826;SDS011;395;48.132;11.608;2023-04-03T13:11:08;4.07;;;2.60;;
826;SDS011;395;48.132;11.608;2023-04-03T13:13:36;2.50;;;2.20;;
826;SDS011;395;48.132;11.608;2023-04-03T13:16:10;3.60;;;2.60;;
826;SDS011;395;48.132;11.608;2023-04-03T13:18:38;2.70;;;2.03;;
826;SDS011;395;48.132;11.608;2023-04-03T13:21:05;2.67;;;2.30;;
826;SDS011;395;48.132;11.608;2023-04-03T13:23:36;2.53;;;2.00;;
826;SDS011;395;48.132;11.608;2023-04-03T13:26:05;2.40;;;2.20;;
826;SDS011;395;48.132;11.608;2023-04-03T13:28:32;4.13;;;1.93;;
826;SDS011;395;48.132;11.608;2023-04-03T13:34:07;3.50;;;2.10;;
826;SDS011;395;48.132;11.608;2023-04-03T13:36:38;2.17;;;1.87;;
826;SDS011;395;48.132;11.608;2023-04-03T13:41:39;3.83;;;2.70;;
826;SDS011;395;48.132;11.608;2023-04-03T13:44:17;2.63;;;2.07;;
826;SDS011;395;48.132;11.608;2023-04-03T13:46:46;2.30;;;1.90;;
826;SDS011;395;48.132;11.608;2023-04-03T13:49:27;2.60;;;2.03;;
826;SDS011;395;48.132;11.608;2023-04-03T13:54:47;2.47;;;2.27;;
826;SDS011;395;48.132;11.608;2023-04-03T13:57:19;2.60;;;2.10;;
826;SDS011;395;48.132;11.608;2023-04-03T13:59:45;2.87;;;2.10;;
826;SDS011;395;48.132;11.608;2023-04-03T14:02:21;3.67;;;2.10;;
826;SDS011;395;48.132;11.608;2023-04-03T14:04:56;2.97;;;2.17;;
826;SDS011;395;48.132;11.608;2023-04-03T14:07:26;2.20;;;1.90;;
826;SDS011;395;48.132;11.608;2023-04-03T14:09:54;5.13;;;2.25;;
826;SDS011;395;48.132;11.608;2023-04-03T14:15:01;2.03;;;1.83;;
826;SDS011;395;48.132;11.608;2023-04-03T14:17:37;3.00;;;1.87;;
826;SDS011;395;48.132;11.608;2023-04-03T14:20:03;1.77;;;1.63;;
826;SDS011;395;48.132;11.608;2023-04-03T14:22:31;3.87;;;2.03;;
826;SDS011;395;48.132;11.608;2023-04-03T14:24:59;4.47;;;1.93;;
826;SDS011;395;48.132;11.608;2023-04-03T14:27:27;3.43;;;2.10;;
826;SDS011;395;48.132;11.608;2023-04-03T14:29:55;1.90;;;1.60;;
826;SDS011;395;48.132;11.608;2023-04-03T14:32:22;1.70;;;1.60;;
826;SDS011;395;48.132;11.608;2023-04-03T14:34:50;3.03;;;1.80;;
826;SDS011;395;48.132;11.608;2023-04-03T14:37:18;1.90;;;1.80;;
826;SDS011;395;48.132;11.608;2023-04-03T14:39:47;1.90;;;1.70;;
826;SDS011;395;48.132;11.608;2023-04-03T14:42:18;5.53;;;2.10;;
826;SDS011;395;48.132;11.608;2023-04-03T14:44:46;2.50;;;1.67;;
826;SDS011;395;48.132;11.608;2023-04-03T14:47:12;3.17;;;1.63;;
826;SDS011;395;48.132;11.608;2023-04-03T14:49:41;2.37;;;1.80;;
826;SDS011;395;48.132;11.608;2023-04-03T14:52:12;2.00;;;1.90;;
826;SDS011;395;48.132;11.608;2023-04-03T14:54:49;3.63;;;1.70;;
826;SDS011;395;48.132;11.608;2023-04-03T14:57:15;2.77;;;1.47;;
826;SDS011;395;48.132;11.608;2023-04-03T14:59:42;1.83;;;1.70;;
826;SDS011;395;48.132;11.608;2023-04-03T15:04:55;2.10;;;1.90;;
826;SDS011;395;48.132;11.608;2023-04-03T15:07:22;2.50;;;1.50;;
826;SDS011;395;48.132;11.608;2023-04-03T15:09:49;2.93;;;1.93;;
826;SDS011;395;48.132;11.608;2023-04-03T15:12:15;2.83;;;1.67;;
826;SDS011;395;48.132;11.608;2023-04-03T15:14:41;2.43;;;1.67;;
826;SDS011;395;48.132;11.608;2023-04-03T15:17:09;2.70;;;1.80;;
826;SDS011;395;48.132;11.608;2023-04-03T15:19:44;2.03;;;1.40;;
826;SDS011;395;48.132;11.608;2023-04-03T15:22:19;1.53;;;1.43;;
826;SDS011;395;48.132;11.608;2023-04-03T15:24:45;4.27;;;1.70;;
826;SDS011;395;48.132;11.608;2023-04-03T15:27:11;3.40;;;1.80;;
826;SDS011;395;48.132;11.608;2023-04-03T15:29:38;3.60;;;2.30;;
826;SDS011;395;48.132;11.608;2023-04-03T15:32:05;3.27;;;1.40;;
826;SDS011;395;48.132;11.608;2023-04-03T15:34:31;2.53;;;1.70;;
826;SDS011;395;48.132;11.608;2023-04-03T15:36:57;1.90;;;1.77;;
826;SDS011;395;48.132;11.608;2023-04-03T15:39:24;4.67;;;2.13;;
826;SDS011;395;48.132;11.608;2023-04-03T15:41:50;5.10;;;2.50;;
826;SDS011;395;48.132;11.608;2023-04-03T15:44:17;3.47;;;2.20;;
826;SDS011;395;48.132;11.608;2023-04-03T15:46:43;3.53;;;2.23;;
826;SDS011;395;48.132;11.608;2023-04-03T15:49:10;3.23;;;1.80;;
826;SDS011;395;48.132;11.608;2023-04-03T15:51:37;2.83;;;1.80;;
826;SDS011;395;48.132;11.608;2023-04-03T15:54:03;1.50;;;1.40;;
826;SDS011;395;48.132;11.608;2023-04-03T15:56:28;3.63;;;2.00;;
826;SDS011;395;48.132;11.608;2023-04-03T15:58:54;8.20;;;2.70;;
826;SDS011;395;48.132;11.608;2023-04-03T16:01:20;9.23;;;3.57;;
826;SDS011;395;48.132;11.608;2023-04-03T16:03:46;5.67;;;2.80;;
826;SDS011;395;48.132;11.608;2023-04-03T16:06:13;6.57;;;2.70;;
826;SDS011;395;48.132;11.608;2023-04-03T16:08:40;3.63;;;2.23;;
826;SDS011;395;48.132;11.608;2023-04-03T16:11:06;6.83;;;2.27;;
826;SDS011;395;48.132;11.608;2023-04-03T16:13:31;4.53;;;2.50;;
826;SDS011;395;48.132;11.608;2023-04-03T16:15:58;3.77;;;2.17;;
826;SDS011;395;48.132;11.608;2023-04-03T16:18:25;3.57;;;2.10;;
826;SDS011;395;48.132;11.608;2023-04-03T16:20:51;2.30;;;2.10;;
826;SDS011;395;48.132;11.608;2023-04-03T16:23:17;5.23;;;2.50;;
826;SDS011;395;48.132;11.608;2023-04-03T16:25:43;4.30;;;2.07;;
826;SDS011;395;48.132;11.608;2023-04-03T16:28:15;3.90;;;2.30;;
826;SDS011;395;48.132;11.608;2023-04-03T16:30:42;4.60;;;3.10;;
826;SDS011;395;48.132;11.608;2023-04-03T16:33:12;4.25;;;2.70;;
826;SDS011;395;48.132;11.608;2023-04-03T16:35:38;3.63;;;2.60;;
826;SDS011;395;48.132;11.608;2023-04-03T16:38:05;3.50;;;2.13;;
826;SDS011;395;48.132;11.608;2023-04-03T16:40:30;2.50;;;2.17;;
826;SDS011;395;48.132;11.608;2023-04-03T16:42:58;3.10;;;2.07;;
826;SDS011;395;48.132;11.608;2023-04-03T16:45:24;2.87;;;2.00;;
826;SDS011;395;48.132;11.608;2023-04-03T16:47:50;3.70;;;1.93;;
826;SDS011;395;48.132;11.608;2023-04-03T16:50:16;3.17;;;1.83;;
826;SDS011;395;48.132;11.608;2023-04-03T16:52:41;4.30;;;1.97;;
826;SDS011;395;48.132;11.608;2023-04-03T16:55:07;2.50;;;2.13;;
826;SDS011;395;48.132;11.608;2023-04-03T16:57:33;3.33;;;2.17;;
826;SDS011;395;48.132;11.608;2023-04-03T16:59:59;3.10;;;1.77;;
826;SDS011;395;48.132;11.608;2023-04-03T17:02:24;3.80;;;2.00;;
826;SDS011;395;48.132;11.608;2023-04-03T17:04:51;4.53;;;2.20;;
826;SDS011;395;48.132;11.608;2023-04-03T17:07:18;4.10;;;2.03;;
826;SDS011;395;48.132;11.608;2023-04-03T17:09:45;3.67;;;2.17;;
826;SDS011;395;48.132;11.608;2023-04-03T17:12:11;2.77;;;1.80;;
826;SDS011;395;48.132;11.608;2023-04-03T17:14:36;1.87;;;1.60;;
826;SDS011;395;48.132;11.608;2023-04-03T17:17:03;2.60;;;1.80;;
826;SDS011;395;48.132;11.608;2023-04-03T17:19:29;2.88;;;1.80;;
826;SDS011;395;48.132;11.608;2023-04-03T17:21:55;1.73;;;1.58;;
826;SDS011;395;48.132;11.608;2023-04-03T17:24:21;1.63;;;1.52;;
826;SDS011;395;48.132;11.608;2023-04-03T17:26:47;2.13;;;1.73;;
826;SDS011;395;48.132;11.608;2023-04-03T17:29:13;2.30;;;1.70;;
826;SDS011;395;48.132;11.608;2023-04-03T17:31:39;4.67;;;2.27;;
826;SDS011;395;48.132;11.608;2023-04-03T17:34:04;2.63;;;1.93;;
826;SDS011;395;48.132;11.608;2023-04-03T17:36:31;4.93;;;2.37;;
826;SDS011;395;48.132;11.608;2023-04-03T17:38:57;6.10;;;2.10;;